Radiosonde details



Informationen :

Serial : D25038915
Type : Graw DFM
Frequency : 403.170MHz
Launchsite : -
Nearest town : Joseph, US (31.6km)

Altitude (Max) : 20373m at 2026-09-03 15:33:14
Speed (Max) : 209km/h at altitude 11232m

Average speed : 100km/h
Average ascent rate : 7m/s
Average descent rate : -6m/s
Ascent rate (Max) : 12.2m/s
Descent rate (Max): -12.2m/s

First frame :
KE7DJD at 2026-09-03 14:56:15 at altitude 5348m (OG: 5306m)
Last frame :
KE7DJD at 2026-09-03 16:06:13 at altitude 8437m (OG: 8395m)

Flighttime : 1h9m58s
Ascent time : 36m59s
Descent time : 32m59s
Uptime : -
Killtimer : -

Distance (Straight line distance): 117km

Distance (Route):


Frames : 200


Measurement :

Temperature : -26.1°C
Humidity : 0%
Pressure : 0hPa


Vertical profile (SkewT) :


Elevation profile :



Receiving stations :


Receiver Frames First received Last received
KE7DJD 200 2026-09-03 14:56:15 2026-09-03 16:06:13

Share per receiver :



All frames :


Receiver Date Latitude Longitude Direction Speed Altitude Climb Temperature Humidity Pressure Voltage Killtimer Uptime BKT XDATA
KE7DJD2026-09-03 16:06:1345.29888-116.8328762°137km/h8437m-5.1m/s-26.1°C0%0hPa0V00:00:0000:00:0000:00:00
KE7DJD2026-09-03 16:05:5245.29551-116.8423363°144km/h8544m-6.8m/s-27.0°C0%0hPa0V00:00:0000:00:0000:00:00
KE7DJD2026-09-03 16:05:3245.29197-116.8520862°146km/h8658m-4.5m/s-27.6°C0%0hPa0V00:00:0000:00:0000:00:00
KE7DJD2026-09-03 16:05:1145.28831-116.8613463°157km/h8749m-4.5m/s-28.2°C0%0hPa0V00:00:0000:00:0000:00:00
KE7DJD2026-09-03 16:04:5145.28420-116.8713859°161km/h8855m-4.9m/s-29.1°C0%0hPa0V00:00:0000:00:0000:00:00
KE7DJD2026-09-03 16:04:3045.28006-116.8811863°159km/h8970m-6.7m/s-30.1°C0%0hPa0V00:00:0000:00:0000:00:00
KE7DJD2026-09-03 16:04:1045.27601-116.8912559°157km/h9110m-6.7m/s-31.3°C0%0hPa0V00:00:0000:00:0000:00:00
KE7DJD2026-09-03 16:03:4945.27160-116.9010558°166km/h9243m-6.6m/s-31.8°C0%0hPa0V00:00:0000:00:0000:00:00
KE7DJD2026-09-03 16:03:2945.26675-116.9116758°168km/h9382m-6.7m/s-32.7°C0%0hPa0V00:00:0000:00:0000:00:00
KE7DJD2026-09-03 16:03:0845.26199-116.9225161°172km/h9520m-6.7m/s-33.8°C0%0hPa0V00:00:0000:00:0000:00:00
KE7DJD2026-09-03 16:02:4745.25784-116.9328460°162km/h9651m-6.5m/s-34.9°C0%0hPa0V00:00:0000:00:0000:00:00
KE7DJD2026-09-03 16:02:2745.25292-116.9431854°170km/h9787m-6.4m/s-35.7°C0%0hPa0V00:00:0000:00:0000:00:00
KE7DJD2026-09-03 16:02:0545.24724-116.9538656°184km/h9925m-6.4m/s-36.6°C0%0hPa0V00:00:0000:00:0000:00:00
KE7DJD2026-09-03 16:01:4545.24176-116.9649755°175km/h10061m-6.4m/s-36.8°C0%0hPa0V00:00:0000:00:0000:00:00
KE7DJD2026-09-03 16:01:2445.23634-116.9759759°184km/h10198m-6.7m/s-37.3°C0%0hPa0V00:00:0000:00:0000:00:00
KE7DJD2026-09-03 16:00:4245.22620-116.9997263°192km/h10425m-4.4m/s-38.6°C0%0hPa0V00:00:0000:00:0000:00:00
KE7DJD2026-09-03 16:00:2245.22149-117.0121363°183km/h10516m-4.5m/s-38.7°C0%0hPa0V00:00:0000:00:0000:00:00
KE7DJD2026-09-03 16:00:0145.21730-117.0237364°183km/h10601m-4.4m/s-39.0°C0%0hPa0V00:00:0000:00:0000:00:00
KE7DJD2026-09-03 15:59:4145.21307-117.0357565°175km/h10691m-4.4m/s-39.7°C0%0hPa0V00:00:0000:00:0000:00:00
KE7DJD2026-09-03 15:59:2045.20903-117.0469363°175km/h10775m-4.4m/s-40.0°C0%0hPa0V00:00:0000:00:0000:00:00
KE7DJD2026-09-03 15:59:0045.20439-117.0584959°177km/h10862m-4.1m/s-40.5°C0%0hPa0V00:00:0000:00:0000:00:00
KE7DJD2026-09-03 15:58:3945.19939-117.0693657°183km/h10951m-4.1m/s-40.8°C0%0hPa0V00:00:0000:00:0000:00:00
KE7DJD2026-09-03 15:58:1945.19385-117.0807856°188km/h11045m-4.4m/s-41.6°C0%0hPa0V00:00:0000:00:0000:00:00
KE7DJD2026-09-03 15:57:5845.18835-117.0915353°181km/h11134m-4.4m/s-42.5°C0%0hPa0V00:00:0000:00:0000:00:00
KE7DJD2026-09-03 15:57:3845.18237-117.1031255°188km/h11234m-4.7m/s-43.4°C0%0hPa0V00:00:0000:00:0000:00:00
KE7DJD2026-09-03 15:57:1745.17707-117.1140757°184km/h11329m-4.8m/s-43.5°C0%0hPa0V00:00:0000:00:0000:00:00
KE7DJD2026-09-03 15:56:5745.17201-117.1253361°173km/h11431m-4.7m/s-44.0°C0%0hPa0V00:00:0000:00:0000:00:00
KE7DJD2026-09-03 15:56:3245.16726-117.1379564°162km/h11547m-4.8m/s-43.4°C0%0hPa0V00:00:0000:00:0000:00:00
KE7DJD2026-09-03 15:56:1245.16322-117.1487564°162km/h11652m-5.1m/s-43.6°C0%0hPa0V00:00:0000:00:0000:00:00
KE7DJD2026-09-03 15:55:5145.15882-117.1593660°166km/h11759m-5.3m/s-43.0°C0%0hPa0V00:00:0000:00:0000:00:00
KE7DJD2026-09-03 15:55:2945.15449-117.1699762°151km/h11872m-5.2m/s-42.8°C0%0hPa0V00:00:0000:00:0000:00:00
KE7DJD2026-09-03 15:55:0945.15080-117.1799462°151km/h11981m-5.1m/s-42.5°C0%0hPa0V00:00:0000:00:0000:00:00
KE7DJD2026-09-03 15:54:4845.14753-117.1893266°142km/h12087m-4.9m/s-42.9°C0%0hPa0V00:00:0000:00:0000:00:00
KE7DJD2026-09-03 15:54:2745.14468-117.1985068°139km/h12183m-4.6m/s-43.4°C0%0hPa0V00:00:0000:00:0000:00:00
KE7DJD2026-09-03 15:54:0745.14198-117.2079270°133km/h12278m-4.4m/s-43.7°C0%0hPa0V00:00:0000:00:0000:00:00
KE7DJD2026-09-03 15:53:4645.13968-117.2166570°126km/h12368m-4.4m/s-43.5°C0%0hPa0V00:00:0000:00:0000:00:00
KE7DJD2026-09-03 15:53:2645.13741-117.2252671°119km/h12461m-4.2m/s-43.4°C0%0hPa0V00:00:0000:00:0000:00:00
KE7DJD2026-09-03 15:53:0545.13538-117.2331071°115km/h12546m-4.4m/s-43.8°C0%0hPa0V00:00:0000:00:0000:00:00
KE7DJD2026-09-03 15:52:4545.13318-117.2410168°110km/h12638m-4.3m/s-44.2°C0%0hPa0V00:00:0000:00:0000:00:00
KE7DJD2026-09-03 15:52:2345.13082-117.2483764°104km/h12729m-4.0m/s-44.5°C0%0hPa0V00:00:0000:00:0000:00:00
KE7DJD2026-09-03 15:52:0345.12833-117.2548860°104km/h12815m-4.4m/s-44.7°C0%0hPa0V00:00:0000:00:0000:00:00
KE7DJD2026-09-03 15:51:4245.12536-117.2617159°110km/h12907m-4.5m/s-44.5°C0%0hPa0V00:00:0000:00:0000:00:00
KE7DJD2026-09-03 15:51:2245.12226-117.2685562°117km/h12995m-4.3m/s-44.0°C0%0hPa0V00:00:0000:00:0000:00:00
KE7DJD2026-09-03 15:51:0245.11967-117.2765370°119km/h13088m-4.7m/s-42.6°C0%0hPa0V00:00:0000:00:0000:00:00
KE7DJD2026-09-03 15:50:2145.11560-117.2934875°126km/h13277m-4.5m/s-43.7°C0%0hPa0V00:00:0000:00:0000:00:00
KE7DJD2026-09-03 15:50:0045.11402-117.3020678°120km/h13370m-4.7m/s-43.6°C0%0hPa0V00:00:0000:00:0000:00:00
KE7DJD2026-09-03 15:49:4045.11263-117.3107379°115km/h13472m-4.9m/s-44.2°C0%0hPa0V00:00:0000:00:0000:00:00
KE7DJD2026-09-03 15:49:1945.11127-117.3186977°115km/h13571m-4.8m/s-44.9°C0%0hPa0V00:00:0000:00:0000:00:00
KE7DJD2026-09-03 15:48:5945.10964-117.3268774°111km/h13675m-4.9m/s-45.5°C0%0hPa0V00:00:0000:00:0000:00:00
KE7DJD2026-09-03 15:48:3845.10767-117.3344868°104km/h13777m-4.8m/s-45.2°C0%0hPa0V00:00:0000:00:0000:00:00
KE7DJD2026-09-03 15:48:1845.10553-117.3410963°102km/h13877m-5.2m/s-44.6°C0%0hPa0V00:00:0000:00:0000:00:00
KE7DJD2026-09-03 15:47:5745.10309-117.3476965°106km/h13980m-5.2m/s-44.4°C0%0hPa0V00:00:0000:00:0000:00:00
KE7DJD2026-09-03 15:47:3745.10062-117.3548668°106km/h14091m-5.4m/s-44.8°C0%0hPa0V00:00:0000:00:0000:00:00
KE7DJD2026-09-03 15:47:1645.09882-117.3616073°97km/h14196m-5.1m/s-45.1°C0%0hPa0V00:00:0000:00:0000:00:00
KE7DJD2026-09-03 15:46:5645.09733-117.3682875°91km/h14307m-5.2m/s-45.5°C0%0hPa0V00:00:0000:00:0000:00:00
KE7DJD2026-09-03 15:46:3445.09605-117.3743672°82km/h14418m-5.3m/s-45.7°C0%0hPa0V00:00:0000:00:0000:00:00
KE7DJD2026-09-03 15:46:1445.09481-117.3796175°75km/h14526m-5.2m/s-46.1°C0%0hPa0V00:00:0000:00:0000:00:00
KE7DJD2026-09-03 15:45:5445.09357-117.3848269°75km/h14639m-5.1m/s-46.6°C0%0hPa0V00:00:0000:00:0000:00:00
KE7DJD2026-09-03 15:45:3345.09223-117.3895470°68km/h14744m-5.2m/s-47.2°C0%0hPa0V00:00:0000:00:0000:00:00
KE7DJD2026-09-03 15:45:1345.09068-117.3943367°75km/h14857m-5.3m/s-47.3°C0%0hPa0V00:00:0000:00:0000:00:00
KE7DJD2026-09-03 15:44:5245.08896-117.3990663°78km/h14964m-5.3m/s-47.1°C0%0hPa0V00:00:0000:00:0000:00:00
KE7DJD2026-09-03 15:44:3245.08719-117.4042266°75km/h15077m-5.4m/s-47.1°C0%0hPa0V00:00:0000:00:0000:00:00
KE7DJD2026-09-03 15:44:1145.08576-117.4089570°68km/h15189m-5.6m/s-46.6°C0%0hPa0V00:00:0000:00:0000:00:00
KE7DJD2026-09-03 15:43:5145.08472-117.4134476°60km/h15311m-5.8m/s-46.6°C0%0hPa0V00:00:0000:00:0000:00:00
KE7DJD2026-09-03 15:43:3045.08395-117.4176277°60km/h15430m-6.1m/s-47.5°C0%0hPa0V00:00:0000:00:0000:00:00
KE7DJD2026-09-03 15:43:1045.08312-117.4218273°57km/h15561m-6.2m/s-47.7°C0%0hPa0V00:00:0000:00:0000:00:00
KE7DJD2026-09-03 15:42:4945.08178-117.4253955°60km/h15689m-6.5m/s-47.7°C0%0hPa0V00:00:0000:00:0000:00:00
KE7DJD2026-09-03 15:42:2945.07939-117.4289444°69km/h15827m-6.6m/s-46.1°C0%0hPa0V00:00:0000:00:0000:00:00
KE7DJD2026-09-03 15:42:0745.07641-117.4328244°80km/h15968m-6.7m/s-46.2°C0%0hPa0V00:00:0000:00:0000:00:00
KE7DJD2026-09-03 15:41:4745.07371-117.4371354°82km/h16098m-6.6m/s-46.0°C0%0hPa0V00:00:0000:00:0000:00:00
KE7DJD2026-09-03 15:41:2745.07148-117.4418960°69km/h16233m-6.4m/s-43.9°C0%0hPa0V00:00:0000:00:0000:00:00
KE7DJD2026-09-03 15:41:0645.07009-117.4459467°57km/h16361m-6.5m/s-43.6°C0%0hPa0V00:00:0000:00:0000:00:00
KE7DJD2026-09-03 15:40:4645.06901-117.4498169°55km/h16494m-6.4m/s-44.1°C0%0hPa0V00:00:0000:00:0000:00:00
KE7DJD2026-09-03 15:40:2545.06795-117.4528762°40km/h16631m-6.4m/s-43.7°C0%0hPa0V00:00:0000:00:0000:00:00
KE7DJD2026-09-03 15:40:0545.06672-117.4554056°46km/h16765m-6.6m/s-44.5°C0%0hPa0V00:00:0000:00:0000:00:00
KE7DJD2026-09-03 15:39:4445.06556-117.4584071°49km/h16901m-7.0m/s-44.6°C0%0hPa0V00:00:0000:00:0000:00:00
KE7DJD2026-09-03 15:39:2445.06473-117.4617175°35km/h17055m-7.5m/s-43.2°C0%0hPa0V00:00:0000:00:0000:00:00
KE7DJD2026-09-03 15:39:0345.06437-117.4637170°24km/h17205m-7.5m/s-42.5°C0%0hPa0V00:00:0000:00:0000:00:00
KE7DJD2026-09-03 15:38:4345.06380-117.4649242°18km/h17364m-7.3m/s-43.0°C0%0hPa0V00:00:0000:00:0000:00:00
KE7DJD2026-09-03 15:38:2245.06296-117.4655821°29km/h17513m-7.3m/s-43.8°C0%0hPa0V00:00:0000:00:0000:00:00
KE7DJD2026-09-03 15:37:4145.05954-117.4684340°49km/h17827m-7.8m/s-44.9°C0%0hPa0V00:00:0000:00:0000:00:00
KE7DJD2026-09-03 15:37:2145.05790-117.4710455°42km/h17998m-8.1m/s-44.4°C0%0hPa0V00:00:0000:00:0000:00:00
KE7DJD2026-09-03 15:36:5945.05684-117.4729750°26km/h18171m-7.9m/s-44.1°C0%0hPa0V00:00:0000:00:0000:00:00
KE7DJD2026-09-03 15:36:3945.05604-117.4745252°24km/h18338m-7.9m/s-43.9°C0%0hPa0V00:00:0000:00:0000:00:00
KE7DJD2026-09-03 15:36:1945.05499-117.4754826°29km/h18517m-8.4m/s-44.1°C0%0hPa0V00:00:0000:00:0000:00:00
KE7DJD2026-09-03 15:35:5845.05375-117.4764034°33km/h18689m-8.3m/s-45.0°C0%0hPa0V00:00:0000:00:0000:00:00
KE7DJD2026-09-03 15:35:3845.05246-117.4780651°35km/h18868m-10.2m/s-44.4°C0%0hPa0V00:00:0000:00:0000:00:00
KE7DJD2026-09-03 15:35:1745.05162-117.4794482°11km/h19050m-9.9m/s-45.1°C0%0hPa0V00:00:0000:00:0000:00:00
KE7DJD2026-09-03 15:34:5745.05111-117.47976328°27km/h19268m-9.5m/s-46.4°C0%0hPa0V00:00:0000:00:0000:00:00
KE7DJD2026-09-03 15:34:3645.05050-117.47935192°7km/h19483m-12.2m/s-47.8°C0%0hPa0V00:00:0000:00:0000:00:00
KE7DJD2026-09-03 15:34:1645.04922-117.4796012°35km/h19707m-9.2m/s-48.7°C0%0hPa0V00:00:0000:00:0000:00:00
KE7DJD2026-09-03 15:33:5545.04774-117.4799222°31km/h19914m-11.8m/s-49.4°C0%0hPa0V00:00:0000:00:0000:00:00
KE7DJD2026-09-03 15:33:3545.04636-117.4810345°22km/h20155m-12.1m/s-48.8°C0%0hPa0V00:00:0000:00:0000:00:00
KE7DJD2026-09-03 15:33:1445.04612-117.48250210°5km/h20373m6.0m/s-47.5°C0%0hPa0V00:00:0000:00:0000:00:00
KE7DJD2026-09-03 15:32:5445.04562-117.4840576°31km/h20224m4.1m/s-48.0°C0%0hPa0V00:00:0000:00:0000:00:00
KE7DJD2026-09-03 15:32:3345.04473-117.4855249°27km/h20082m7.6m/s-48.8°C0%0hPa0V00:00:0000:00:0000:00:00
KE7DJD2026-09-03 15:32:1245.04353-117.4868727km/h19944m7.1m/s-49.0°C0%0hPa0V00:00:0000:00:0000:00:00
KE7DJD2026-09-03 15:31:5245.04204-117.4874124km/h19812m6.1m/s-49.1°C0%0hPa0V00:00:0000:00:0000:00:00
KE7DJD2026-09-03 15:31:3145.04067-117.4876226°20km/h19684m3.6m/s-48.3°C0%0hPa0V00:00:0000:00:0000:00:00
KE7DJD2026-09-03 15:31:1045.03961-117.4879122°20km/h19553m8.4m/s-47.9°C0%0hPa0V00:00:0000:00:0000:00:00
KE7DJD2026-09-03 15:30:5045.03882-117.48783298°11km/h19429m7.7m/s-47.2°C0%0hPa0V00:00:0000:00:0000:00:00
KE7DJD2026-09-03 15:30:3045.03833-117.4876616km/h19299m3.1m/s-46.2°C0%0hPa0V00:00:0000:00:0000:00:00
KE7DJD2026-09-03 15:30:0945.03814-117.4874510°15km/h19159m7.8m/s-45.4°C0%0hPa0V00:00:0000:00:0000:00:00
KE7DJD2026-09-03 15:29:4945.03754-117.48823286°13km/h18998m10.7m/s-44.5°C0%0hPa0V00:00:0000:00:0000:00:00
KE7DJD2026-09-03 15:29:2845.03690-117.4894053°31km/h18864m6.0m/s-44.3°C0%0hPa0V00:00:0000:00:0000:00:00
KE7DJD2026-09-03 15:29:0845.03559-117.4911535°38km/h18747m5.1m/s-45.2°C0%0hPa0V00:00:0000:00:0000:00:00
KE7DJD2026-09-03 15:28:4745.03429-117.4926137°33km/h18631m6.0m/s-44.6°C0%0hPa0V00:00:0000:00:0000:00:00
KE7DJD2026-09-03 15:28:2745.03300-117.4939144°24km/h18498m8.0m/s-44.3°C0%0hPa0V00:00:0000:00:0000:00:00
KE7DJD2026-09-03 15:28:0645.03201-117.4952560°33km/h18380m7.4m/s-44.6°C0%0hPa0V00:00:0000:00:0000:00:00
KE7DJD2026-09-03 15:27:4645.03112-117.4968433°35km/h18249m3.0m/s-45.3°C0%0hPa0V00:00:0000:00:0000:00:00
KE7DJD2026-09-03 15:27:2545.02999-117.4988249°35km/h18125m8.3m/s-45.3°C0%0hPa0V00:00:0000:00:0000:00:00
KE7DJD2026-09-03 15:27:0545.02847-117.5013348°40km/h17991m4.8m/s-46.0°C0%0hPa0V00:00:0000:00:0000:00:00
KE7DJD2026-09-03 15:26:4445.02642-117.5034236°44km/h17858m5.2m/s-45.5°C0%0hPa0V00:00:0000:00:0000:00:00
KE7DJD2026-09-03 15:26:2345.02459-117.5046524°31km/h17729m3.5m/s-44.6°C0%0hPa0V00:00:0000:00:0000:00:00
KE7DJD2026-09-03 15:26:0345.02305-117.50534333°24km/h17595m8.5m/s-43.9°C0%0hPa0V00:00:0000:00:0000:00:00
KE7DJD2026-09-03 15:25:4245.02194-117.5055850°18km/h17465m4.0m/s-43.7°C0%0hPa0V00:00:0000:00:0000:00:00
KE7DJD2026-09-03 15:25:2245.02123-117.5065138°22km/h17331m6.8m/s-43.3°C0%0hPa0V00:00:0000:00:0000:00:00
KE7DJD2026-09-03 15:25:0145.02079-117.5082998°20km/h17203m7.3m/s-44.0°C0%0hPa0V00:00:0000:00:0000:00:00
KE7DJD2026-09-03 15:24:4145.02053-117.5107884°40km/h17090m6.5m/s-44.2°C0%0hPa0V00:00:0000:00:0000:00:00
KE7DJD2026-09-03 15:24:2045.01996-117.5140890°49km/h16971m8.5m/s-45.1°C0%0hPa0V00:00:0000:00:0000:00:00
KE7DJD2026-09-03 15:24:0045.01903-117.5174860°46km/h16836m4.5m/s-44.7°C0%0hPa0V00:00:0000:00:0000:00:00
KE7DJD2026-09-03 15:23:3945.01772-117.5200955°42km/h16694m7.9m/s-44.2°C0%0hPa0V00:00:0000:00:0000:00:00
KE7DJD2026-09-03 15:23:1945.01660-117.5227871°46km/h16561m4.8m/s-44.2°C0%0hPa0V00:00:0000:00:0000:00:00
KE7DJD2026-09-03 15:22:5845.01562-117.5260467°57km/h16432m9.3m/s-44.4°C0%0hPa0V00:00:0000:00:0000:00:00
KE7DJD2026-09-03 15:22:3845.01409-117.5298351°66km/h16280m6.3m/s-44.7°C0%0hPa0V00:00:0000:00:0000:00:00
KE7DJD2026-09-03 15:22:1745.01186-117.5340356°78km/h16136m4.0m/s-46.0°C0%0hPa0V00:00:0000:00:0000:00:00
KE7DJD2026-09-03 15:21:5745.00905-117.5383939°71km/h15979m7.8m/s-46.1°C0%0hPa0V00:00:0000:00:0000:00:00
KE7DJD2026-09-03 15:21:3545.00568-117.5416734°66km/h15836m7.9m/s-45.8°C0%0hPa0V00:00:0000:00:0000:00:00
KE7DJD2026-09-03 15:21:1545.00294-117.5447135°57km/h15708m4.9m/s-46.0°C0%0hPa0V00:00:0000:00:0000:00:00
KE7DJD2026-09-03 15:20:5545.00063-117.5479446°47km/h15573m6.7m/s-46.6°C0%0hPa0V00:00:0000:00:0000:00:00
KE7DJD2026-09-03 15:20:3444.99961-117.5511773°57km/h15429m6.4m/s-46.7°C0%0hPa0V00:00:0000:00:0000:00:00
KE7DJD2026-09-03 15:20:1444.99906-117.5553883°51km/h15281m3.3m/s-45.9°C0%0hPa0V00:00:0000:00:0000:00:00
KE7DJD2026-09-03 15:19:5344.99848-117.5591873°46km/h15141m10.7m/s-45.0°C0%0hPa0V00:00:0000:00:0000:00:00
KE7DJD2026-09-03 15:19:3344.99753-117.5635775°60km/h15012m5.9m/s-45.4°C0%0hPa0V00:00:0000:00:0000:00:00
KE7DJD2026-09-03 15:19:1244.99617-117.5682557°78km/h14893m7.5m/s-45.9°C0%0hPa0V00:00:0000:00:0000:00:00
KE7DJD2026-09-03 15:18:5244.99415-117.5734861°84km/h14759m5.2m/s-45.8°C0%0hPa0V00:00:0000:00:0000:00:00
KE7DJD2026-09-03 15:18:3144.99234-117.5786069°78km/h14632m5.7m/s-45.9°C0%0hPa0V00:00:0000:00:0000:00:00
KE7DJD2026-09-03 15:18:1144.99075-117.5837775°82km/h14495m6.8m/s-45.4°C0%0hPa0V00:00:0000:00:0000:00:00
KE7DJD2026-09-03 15:17:5044.98948-117.5897076°86km/h14352m7.6m/s-44.9°C0%0hPa0V00:00:0000:00:0000:00:00
KE7DJD2026-09-03 15:17:3044.98822-117.5956371°97km/h14221m7.4m/s-44.1°C0%0hPa0V00:00:0000:00:0000:00:00
KE7DJD2026-09-03 15:17:0944.98688-117.6019276°95km/h14074m8.1m/s-43.6°C0%0hPa0V00:00:0000:00:0000:00:00
KE7DJD2026-09-03 15:16:4944.98528-117.6092366°113km/h13918m4.5m/s-44.2°C0%0hPa0V00:00:0000:00:0000:00:00
KE7DJD2026-09-03 15:16:2744.98319-117.6169772°115km/h13768m4.7m/s-44.1°C0%0hPa0V00:00:0000:00:0000:00:00
KE7DJD2026-09-03 15:16:0744.98178-117.6249779°119km/h13638m7.7m/s-45.6°C0%0hPa0V00:00:0000:00:0000:00:00
KE7DJD2026-09-03 15:15:4744.98050-117.6333583°104km/h13502m10.5m/s-44.6°C0%0hPa0V00:00:0000:00:0000:00:00
KE7DJD2026-09-03 15:15:2644.97948-117.6419783°128km/h13355m5.8m/s-43.7°C0%0hPa0V00:00:0000:00:0000:00:00
KE7DJD2026-09-03 15:15:0644.97840-117.6514377°133km/h13214m4.3m/s-43.4°C0%0hPa0V00:00:0000:00:0000:00:00
KE7DJD2026-09-03 15:14:4544.97673-117.6600474°124km/h13081m5.6m/s-43.8°C0%0hPa0V00:00:0000:00:0000:00:00
KE7DJD2026-09-03 15:14:2544.97417-117.6683371°108km/h12958m7.1m/s-44.3°C0%0hPa0V00:00:0000:00:0000:00:00
KE7DJD2026-09-03 15:14:0444.97176-117.6756164°120km/h12836m6.6m/s-45.2°C0%0hPa0V00:00:0000:00:0000:00:00
KE7DJD2026-09-03 15:13:4444.96929-117.6840771°110km/h12710m5.7m/s-44.9°C0%0hPa0V00:00:0000:00:0000:00:00
KE7DJD2026-09-03 15:13:2344.96743-117.6924774°126km/h12572m10.3m/s-44.5°C0%0hPa0V00:00:0000:00:0000:00:00
KE7DJD2026-09-03 15:12:4244.96302-117.7109570°137km/h12306m8.9m/s-44.0°C0%0hPa0V00:00:0000:00:0000:00:00
KE7DJD2026-09-03 15:12:2244.96020-117.7213764°150km/h12138m8.8m/s-43.4°C0%0hPa0V00:00:0000:00:0000:00:00
KE7DJD2026-09-03 15:12:0144.95716-117.7312462°159km/h11979m9.1m/s-42.3°C0%0hPa0V00:00:0000:00:0000:00:00
KE7DJD2026-09-03 15:11:4144.95333-117.7417466°151km/h11830m6.7m/s-42.3°C0%0hPa0V00:00:0000:00:0000:00:00
KE7DJD2026-09-03 15:11:2044.94927-117.7519264°164km/h11692m7.4m/s-43.1°C0%0hPa0V00:00:0000:00:0000:00:00
KE7DJD2026-09-03 15:11:0044.94507-117.7631655°181km/h11576m5.0m/s-43.1°C0%0hPa0V00:00:0000:00:0000:00:00
KE7DJD2026-09-03 15:10:3944.94158-117.7746067°144km/h11401m5.9m/s-42.6°C0%0hPa0V00:00:0000:00:0000:00:00
KE7DJD2026-09-03 15:10:1844.93765-117.7858355°206km/h11232m9.4m/s-42.4°C0%0hPa0V00:00:0000:00:0000:00:00
KE7DJD2026-09-03 15:09:5844.93256-117.7974054°175km/h11086m3.0m/s-41.8°C0%0hPa0V00:00:0000:00:0000:00:00
KE7DJD2026-09-03 15:09:3744.92731-117.8084149°177km/h10945m4.6m/s-40.8°C0%0hPa0V00:00:0000:00:0000:00:00
KE7DJD2026-09-03 15:09:1744.92225-117.8198563°151km/h10789m5.9m/s-39.9°C0%0hPa0V00:00:0000:00:0000:00:00
KE7DJD2026-09-03 15:08:5644.91803-117.8317460°193km/h10634m5.5m/s-39.3°C0%0hPa0V00:00:0000:00:0000:00:00
KE7DJD2026-09-03 15:08:3544.91388-117.8432962°168km/h10497m5.6m/s-38.3°C0%0hPa0V00:00:0000:00:0000:00:00
KE7DJD2026-09-03 15:08:1544.90911-117.8554657°186km/h10348m7.8m/s-38.4°C0%0hPa0V00:00:0000:00:0000:00:00
KE7DJD2026-09-03 15:07:5544.90360-117.8673960°195km/h10182m7.6m/s-37.6°C0%0hPa0V00:00:0000:00:0000:00:00
KE7DJD2026-09-03 15:07:3444.89806-117.8777154°172km/h10035m10.0m/s-37.4°C0%0hPa0V00:00:0000:00:0000:00:00
KE7DJD2026-09-03 15:07:1444.89233-117.8880857°184km/h9902m10.0m/s-36.4°C0%0hPa0V00:00:0000:00:0000:00:00
KE7DJD2026-09-03 15:06:5344.88717-117.8984660°159km/h9758m7.6m/s-35.7°C0%0hPa0V00:00:0000:00:0000:00:00
KE7DJD2026-09-03 15:06:3344.88196-117.9088765°155km/h9612m8.7m/s-34.7°C0%0hPa0V00:00:0000:00:0000:00:00
KE7DJD2026-09-03 15:06:1244.87769-117.9197358°150km/h9464m5.7m/s-33.7°C0%0hPa0V00:00:0000:00:0000:00:00
KE7DJD2026-09-03 15:05:5144.87334-117.9294656°155km/h9345m3.7m/s-32.7°C0%0hPa0V00:00:0000:00:0000:00:00
KE7DJD2026-09-03 15:05:3044.86897-117.9402259°179km/h9194m10.1m/s-31.3°C0%0hPa0V00:00:0000:00:0000:00:00
KE7DJD2026-09-03 15:05:1044.86487-117.9502962°164km/h9062m7.3m/s-30.5°C0%0hPa0V00:00:0000:00:0000:00:00
KE7DJD2026-09-03 15:04:5044.86074-117.9610563°155km/h8914m6.0m/s-29.2°C0%0hPa0V00:00:0000:00:0000:00:00
KE7DJD2026-09-03 15:04:2944.85703-117.9708961°153km/h8797m12.2m/s-28.7°C0%0hPa0V00:00:0000:00:0000:00:00
KE7DJD2026-09-03 15:04:0944.85337-117.9808769°130km/h8644m6.0m/s-27.7°C0%0hPa0V00:00:0000:00:0000:00:00
KE7DJD2026-09-03 15:03:4844.84998-117.9899772°159km/h8500m5.9m/s-26.6°C0%0hPa0V00:00:0000:00:0000:00:00
KE7DJD2026-09-03 15:03:2844.84652-117.9996862°128km/h8360m4.7m/s-25.5°C0%0hPa0V00:00:0000:00:0000:00:00
KE7DJD2026-09-03 15:03:0744.84335-118.0084465°141km/h8211m6.6m/s-24.3°C0%0hPa0V00:00:0000:00:0000:00:00
KE7DJD2026-09-03 15:02:4744.83997-118.0176060°146km/h8056m7.9m/s-23.3°C0%0hPa0V00:00:0000:00:0000:00:00
KE7DJD2026-09-03 15:02:2644.83725-118.0262570°148km/h7909m6.3m/s-22.5°C0%0hPa0V00:00:0000:00:0000:00:00
KE7DJD2026-09-03 15:02:0644.83442-118.0352465°141km/h7754m5.8m/s-21.5°C0%0hPa0V00:00:0000:00:0000:00:00
KE7DJD2026-09-03 15:01:4544.83212-118.0426966°128km/h7613m5.7m/s-20.8°C0%0hPa0V00:00:0000:00:0000:00:00
KE7DJD2026-09-03 15:01:2544.82942-118.0498356°95km/h7462m6.6m/s-20.0°C0%0hPa0V00:00:0000:00:0000:00:00
KE7DJD2026-09-03 15:00:4344.82330-118.0614242°119km/h7188m5.4m/s-19.6°C0%0hPa0V00:00:0000:00:0000:00:00
KE7DJD2026-09-03 15:00:2344.81973-118.0672746°111km/h7047m8.0m/s-18.2°C0%0hPa0V00:00:0000:00:0000:00:00
KE7DJD2026-09-03 15:00:0244.81626-118.0731356°110km/h6897m8.1m/s-16.9°C0%0hPa0V00:00:0000:00:0000:00:00
KE7DJD2026-09-03 14:59:4244.81260-118.0790459°99km/h6757m6.5m/s-15.7°C0%0hPa0V00:00:0000:00:0000:00:00
KE7DJD2026-09-03 14:59:2144.80865-118.0854461°113km/h6622m6.9m/s-14.6°C0%0hPa0V00:00:0000:00:0000:00:00
KE7DJD2026-09-03 14:59:0044.80518-118.0920353°104km/h6484m7.0m/s-13.9°C0%0hPa0V00:00:0000:00:0000:00:00
KE7DJD2026-09-03 14:58:4044.80234-118.0989260°117km/h6339m6.1m/s-13.8°C0%0hPa0V00:00:0000:00:0000:00:00
KE7DJD2026-09-03 14:58:2044.79978-118.1052571°64km/h6187m9.0m/s-13.0°C0%0hPa0V00:00:0000:00:0000:00:00
KE7DJD2026-09-03 14:57:5944.79753-118.1109966°95km/h6041m7.1m/s-11.9°C0%0hPa0V00:00:0000:00:0000:00:00
KE7DJD2026-09-03 14:57:3944.79545-118.1157645°58km/h5904m7.5m/s-10.8°C0%0hPa0V00:00:0000:00:0000:00:00
KE7DJD2026-09-03 14:57:1844.79353-118.1199958°55km/h5768m6.2m/s-9.8°C0%0hPa0V00:00:0000:00:0000:00:00
KE7DJD2026-09-03 14:56:5844.79120-118.1243444°77km/h5628m6.3m/s-8.8°C0%0hPa0V00:00:0000:00:0000:00:00
KE7DJD2026-09-03 14:56:3744.78873-118.1282841°51km/h5488m7.9m/s-7.9°C0%0hPa0V00:00:0000:00:0000:00:00
KE7DJD2026-09-03 14:56:1544.78643-118.1316047°77km/h5348m5.9m/s-7.1°C0%0hPa0V00:00:0000:00:0000:00:00


GPX KML Map

© wettersonde.net (DO2JMG) - 2026  -  -